Time;durP1;ratioP1;P1;durP2;ratioP2;P2;SDS_P1;SDS_P2;PMS_P1;PMS_P2;Temp;Humidity;BMP_temperature;BMP_pressure;BME280_temperature;BME280_humidity;BME280_pressure;Samples;Min_cycle;Max_cycle;Signal;HPM_P1;HPM_P2
2022/06/30 00:00:40;;;;;;;7.45;6.60;;;21.60;99.90;;;;;;5017180;28;20189;-75
2022/06/30 00:03:05;;;;;;;9.10;7.20;;;21.60;99.90;;;;;;5016816;28;20647;-75
2022/06/30 00:05:31;;;;;;;8.73;6.95;;;21.50;99.90;;;;;;5017102;28;20209;-75
2022/06/30 00:07:56;;;;;;;8.07;6.07;;;21.50;99.90;;;;;;5017116;28;20177;-76
2022/06/30 00:10:22;;;;;;;8.65;6.25;;;21.10;99.90;;;;;;5015610;28;20177;-76
2022/06/30 00:12:48;;;;;;;8.63;6.35;;;21.30;99.90;;;;;;5016846;28;20180;-75
2022/06/30 00:15:14;;;;;;;8.10;6.88;;;21.60;99.90;;;;;;5019296;28;20224;-78
2022/06/30 00:17:39;;;;;;;8.63;6.35;;;21.70;99.90;;;;;;5016523;28;20697;-79
2022/06/30 00:20:06;;;;;;;9.10;6.72;;;21.60;99.90;;;;;;5016489;28;20644;-77
2022/06/30 00:22:31;;;;;;;8.85;5.97;;;21.40;99.90;;;;;;5016590;28;20207;-77
2022/06/30 00:24:57;;;;;;;7.65;6.20;;;21.40;99.90;;;;;;5016558;28;20189;-78
2022/06/30 00:27:22;;;;;;;7.78;6.18;;;21.60;99.90;;;;;;5016907;28;20221;-77
2022/06/30 00:29:48;;;;;;;6.35;5.57;;;21.80;99.90;;;;;;5016414;28;20178;-76
2022/06/30 00:32:13;;;;;;;9.35;6.68;;;21.80;99.90;;;;;;5015448;28;20181;-79
2022/06/30 00:34:39;;;;;;;10.43;8.52;;;21.90;99.90;;;;;;5016725;28;20177;-76
2022/06/30 00:37:04;;;;;;;10.10;6.80;;;22.00;99.90;;;;;;5015920;28;20177;-76
2022/06/30 00:39:30;;;;;;;7.20;6.45;;;21.80;99.90;;;;;;5016791;28;20224;-79
2022/06/30 00:41:56;;;;;;;15.75;6.00;;;21.70;99.90;;;;;;5016711;28;20173;-77
2022/06/30 00:44:22;;;;;;;8.32;7.50;;;21.70;99.90;;;;;;5016305;28;20177;-79
2022/06/30 00:46:48;;;;;;;13.77;6.63;;;21.70;99.90;;;;;;5015755;28;20217;-77
2022/06/30 00:49:14;;;;;;;9.50;7.30;;;21.70;99.90;;;;;;5015965;28;20180;-77
2022/06/30 00:51:39;;;;;;;11.85;6.85;;;21.50;99.90;;;;;;5015771;28;20181;-78
2022/06/30 00:54:06;;;;;;;8.98;6.85;;;21.60;99.90;;;;;;5015653;28;20209;-78
2022/06/30 00:56:34;;;;;;;13.23;9.65;;;21.80;99.90;;;;;;5015672;28;20178;-77
2022/06/30 00:59:03;;;;;;;23.25;15.75;;;21.80;99.90;;;;;;5015373;28;20177;-76
2022/06/30 01:01:30;;;;;;;10.00;6.78;;;21.80;99.90;;;;;;5015754;28;20181;-76
2022/06/30 01:03:56;;;;;;;8.73;6.80;;;21.40;99.90;;;;;;5015600;28;20259;-77
2022/06/30 01:06:22;;;;;;;7.70;6.35;;;21.60;99.90;;;;;;5015615;28;20213;-78
2022/06/30 01:08:49;;;;;;;8.50;7.20;;;21.50;99.90;;;;;;5015728;28;20173;-77
2022/06/30 01:14:01;;;;;;;7.65;6.40;;;21.50;99.90;;;;;;5015899;28;20197;-78
2022/06/30 01:16:27;;;;;;;8.35;7.25;;;21.50;99.90;;;;;;5017301;28;20213;-80
2022/06/30 01:18:52;;;;;;;10.65;8.18;;;21.40;99.90;;;;;;5015525;28;20621;-78
2022/06/30 01:21:18;;;;;;;7.13;6.30;;;21.40;99.90;;;;;;5015854;28;20180;-77
2022/06/30 01:23:44;;;;;;;9.63;6.18;;;21.30;99.90;;;;;;5015518;28;20181;-79
2022/06/30 01:26:10;;;;;;;10.63;8.00;;;21.50;99.90;;;;;;5014800;28;20216;-75
2022/06/30 01:28:35;;;;;;;35.58;24.33;;;21.50;99.90;;;;;;5014503;28;20280;-76
2022/06/30 01:31:01;;;;;;;9.93;8.50;;;21.50;99.90;;;;;;5015110;28;20204;-75
2022/06/30 01:33:26;;;;;;;11.23;8.43;;;21.30;99.90;;;;;;5013796;28;20216;-77
2022/06/30 01:35:55;;;;;;;12.82;9.73;;;21.40;99.90;;;;;;5014707;28;20177;-77
2022/06/30 01:38:20;;;;;;;8.25;6.95;;;21.50;99.90;;;;;;5015428;28;20211;-76
2022/06/30 01:40:46;;;;;;;10.40;7.18;;;21.50;99.90;;;;;;5017081;28;20192;-76
2022/06/30 01:43:13;;;;;;;8.45;7.00;;;21.40;99.90;;;;;;5023080;28;20208;-74
2022/06/30 01:45:39;;;;;;;12.43;8.77;;;21.30;99.90;;;;;;5022653;28;20227;-75
2022/06/30 01:48:06;;;;;;;11.65;7.40;;;21.40;99.90;;;;;;5026653;28;20257;-76
2022/06/30 01:50:32;;;;;;;10.98;6.60;;;21.30;99.90;;;;;;5020124;28;20178;-77
2022/06/30 01:52:58;;;;;;;8.43;6.72;;;21.30;99.90;;;;;;5015191;28;20173;-74
2022/06/30 01:55:25;;;;;;;9.10;7.38;;;21.10;99.90;;;;;;5016106;28;20247;-77
2022/06/30 01:57:51;;;;;;;11.65;8.50;;;21.10;99.90;;;;;;5014592;28;20571;-76
2022/06/30 02:00:19;;;;;;;12.55;10.80;;;21.20;99.90;;;;;;5014000;28;20181;-78
2022/06/30 02:02:45;;;;;;;11.63;9.30;;;21.00;99.90;;;;;;5014962;28;20191;-74
2022/06/30 02:05:12;;;;;;;11.20;6.80;;;20.80;99.90;;;;;;5014401;28;20241;-76
2022/06/30 02:07:39;;;;;;;9.45;6.15;;;21.10;99.90;;;;;;5014151;28;20181;-78
2022/06/30 02:10:06;;;;;;;11.60;7.20;;;21.10;99.90;;;;;;5014286;28;20255;-79
2022/06/30 02:12:47;;;;;;;9.13;7.18;;;21.20;99.90;;;;;;5014925;28;20181;-78
2022/06/30 02:15:23;;;;;;;15.35;10.70;;;21.20;99.90;;;;;;5014444;28;20208;-76
2022/06/30 02:17:51;;;;;;;7.70;6.78;;;21.10;99.90;;;;;;5014499;28;20173;-77
2022/06/30 02:20:21;;;;;;;10.68;7.80;;;21.10;99.90;;;;;;5014559;28;20181;-76
2022/06/30 02:22:48;;;;;;;7.45;6.65;;;21.00;99.90;;;;;;5014064;28;20621;-77
2022/06/30 02:25:14;;;;;;;7.07;6.10;;;21.10;99.90;;;;;;5014617;28;20273;-76
2022/06/30 02:27:39;;;;;;;8.85;5.78;;;21.00;99.90;;;;;;5014452;28;20216;-75
2022/06/30 02:30:06;;;;;;;9.13;6.40;;;21.20;99.90;;;;;;5014304;28;20185;-77
2022/06/30 02:32:32;;;;;;;7.93;6.00;;;21.00;99.90;;;;;;5013799;28;20512;-76
2022/06/30 02:34:58;;;;;;;8.18;6.35;;;20.90;99.90;;;;;;5014305;28;20182;-76
2022/06/30 02:37:23;;;;;;;6.68;5.60;;;21.00;99.90;;;;;;5014268;28;20180;-77
2022/06/30 02:39:49;;;;;;;6.13;5.53;;;21.20;99.90;;;;;;5014390;28;20195;-76
2022/06/30 02:42:15;;;;;;;9.52;6.22;;;21.30;99.90;;;;;;5014534;28;20181;-76
2022/06/30 02:44:41;;;;;;;6.78;6.07;;;21.40;99.90;;;;;;5014349;28;20264;-77
2022/06/30 02:47:07;;;;;;;6.75;5.63;;;21.20;99.90;;;;;;5016259;28;20232;-77
2022/06/30 02:49:32;;;;;;;6.97;5.97;;;20.90;99.90;;;;;;5018858;28;20557;-77
2022/06/30 02:51:58;;;;;;;8.48;5.80;;;21.00;99.90;;;;;;5016259;28;20192;-76
2022/06/30 02:54:23;;;;;;;7.35;6.47;;;21.00;99.90;;;;;;5017834;28;20173;-76
2022/06/30 02:56:49;;;;;;;8.48;7.10;;;21.20;99.90;;;;;;5020650;28;20191;-79
2022/06/30 02:59:15;;;;;;;8.70;6.72;;;21.20;99.90;;;;;;5021667;28;20219;-76
2022/06/30 03:01:40;;;;;;;8.70;6.50;;;21.20;99.90;;;;;;5020100;28;20182;-77
2022/06/30 03:04:06;;;;;;;9.73;6.65;;;21.20;99.90;;;;;;5017827;28;20217;-76
2022/06/30 03:06:33;;;;;;;8.82;6.35;;;21.10;99.90;;;;;;5017824;28;20300;-76
2022/06/30 03:08:59;;;;;;;7.70;5.97;;;21.10;99.90;;;;;;5017841;28;20182;-75
2022/06/30 03:11:25;;;;;;;9.82;7.32;;;21.10;99.90;;;;;;5018072;28;20487;-76
2022/06/30 03:13:51;;;;;;;7.47;6.22;;;21.10;99.90;;;;;;5017501;28;20180;-77
2022/06/30 03:16:20;;;;;;;7.30;5.90;;;21.20;99.90;;;;;;5017844;28;20536;-76
2022/06/30 03:18:45;;;;;;;9.38;7.07;;;21.40;99.90;;;;;;5017468;28;20209;-76
2022/06/30 03:21:11;;;;;;;6.85;6.13;;;21.40;99.90;;;;;;5017342;28;20177;-78
2022/06/30 03:23:37;;;;;;;6.15;5.50;;;21.30;99.90;;;;;;5017574;28;20185;-77
2022/06/30 03:26:04;;;;;;;6.97;6.28;;;21.10;99.90;;;;;;5016981;28;20244;-77
2022/06/30 03:28:30;;;;;;;12.57;6.13;;;20.80;99.90;;;;;;5017571;28;20283;-75
2022/06/30 03:30:56;;;;;;;9.93;6.03;;;21.00;99.90;;;;;;5017596;28;20268;-78
2022/06/30 03:33:21;;;;;;;7.45;5.43;;;21.00;99.90;;;;;;5018493;28;20213;-75
2022/06/30 03:35:47;;;;;;;9.98;6.28;;;21.00;99.90;;;;;;5025972;28;20176;-76
2022/06/30 03:38:13;;;;;;;8.23;6.45;;;21.20;99.90;;;;;;5033930;28;20181;-77
2022/06/30 03:40:39;;;;;;;6.05;5.28;;;21.20;99.90;;;;;;5033336;28;20184;-76
2022/06/30 03:43:05;;;;;;;7.15;5.80;;;21.20;99.90;;;;;;5031668;28;20223;-77
2022/06/30 03:45:31;;;;;;;6.57;5.82;;;21.00;99.90;;;;;;5018112;28;20182;-79
2022/06/30 03:48:00;;;;;;;10.18;6.55;;;21.10;99.90;;;;;;5017050;28;20208;-76
2022/06/30 03:50:25;;;;;;;8.50;6.30;;;21.10;99.90;;;;;;5016861;28;20181;-77
2022/06/30 03:52:51;;;;;;;7.68;6.32;;;21.00;99.90;;;;;;5017318;28;20184;-78
2022/06/30 03:55:17;;;;;;;6.47;5.75;;;21.10;99.90;;;;;;5016709;28;20189;-77
2022/06/30 03:57:43;;;;;;;9.65;6.00;;;21.10;99.90;;;;;;5015885;28;20177;-76
2022/06/30 04:00:09;;;;;;;8.75;6.13;;;21.00;99.90;;;;;;5016520;28;20188;-78
2022/06/30 04:02:34;;;;;;;11.55;5.80;;;21.00;99.90;;;;;;5016045;28;20300;-76
2022/06/30 04:05:00;;;;;;;5.95;5.28;;;21.00;99.90;;;;;;5016466;28;20253;-77
2022/06/30 04:07:25;;;;;;;6.78;5.60;;;21.00;99.90;;;;;;5015144;28;20268;-77
2022/06/30 04:09:51;;;;;;;6.47;5.45;;;21.10;99.90;;;;;;5016022;28;20178;-77
2022/06/30 04:12:17;;;;;;;7.53;5.38;;;21.10;99.90;;;;;;5016683;28;20177;-78
2022/06/30 04:14:42;;;;;;;7.43;5.82;;;21.10;99.90;;;;;;5015863;28;20639;-78
2022/06/30 04:17:08;;;;;;;6.10;5.22;;;21.20;99.90;;;;;;5016081;28;20219;-77
2022/06/30 04:19:34;;;;;;;7.80;6.00;;;21.20;99.90;;;;;;5016265;28;20177;-78
2022/06/30 04:21:59;;;;;;;7.47;6.25;;;21.30;99.90;;;;;;5016067;28;20188;-77
2022/06/30 04:24:25;;;;;;;10.02;6.13;;;21.30;99.90;;;;;;5016295;28;20260;-78
2022/06/30 04:26:50;;;;;;;7.03;5.90;;;21.30;99.90;;;;;;5016354;28;20675;-75
2022/06/30 04:29:16;;;;;;;7.65;6.10;;;21.20;99.90;;;;;;5015703;28;20201;-78
2022/06/30 04:34:25;;;;;;;6.47;5.78;;;21.20;99.90;;;;;;5015619;28;20543;-76
2022/06/30 04:36:51;;;;;;;10.68;6.82;;;21.30;99.90;;;;;;5015723;28;20177;-76
2022/06/30 04:39:17;;;;;;;10.45;5.30;;;21.30;99.90;;;;;;5015544;28;20178;-76
2022/06/30 04:41:42;;;;;;;8.88;6.30;;;21.30;99.90;;;;;;5015515;28;20682;-78
2022/06/30 04:44:08;;;;;;;9.63;6.45;;;21.30;99.90;;;;;;5015859;28;20264;-76
2022/06/30 04:46:33;;;;;;;8.05;6.35;;;21.20;99.90;;;;;;5015268;28;20243;-76
2022/06/30 04:48:59;;;;;;;13.35;6.43;;;21.40;99.90;;;;;;5015779;28;20181;-75
2022/06/30 04:51:24;;;;;;;12.27;7.55;;;21.40;99.90;;;;;;5014932;28;20264;-76
2022/06/30 04:53:51;;;;;;;11.93;7.90;;;21.50;99.90;;;;;;5015162;28;20181;-77
2022/06/30 04:56:18;;;;;;;13.63;7.20;;;21.60;99.90;;;;;;5015512;28;20178;-75
2022/06/30 04:58:45;;;;;;;16.50;9.40;;;21.60;99.90;;;;;;5014981;28;20280;-75
2022/06/30 05:01:11;;;;;;;19.85;10.68;;;21.40;99.90;;;;;;5015644;28;20174;-75
2022/06/30 05:03:37;;;;;;;16.45;8.98;;;21.40;99.90;;;;;;5014459;28;20229;-75
2022/06/30 05:06:04;;;;;;;20.15;8.80;;;21.30;99.90;;;;;;5014545;28;20228;-74
2022/06/30 05:08:30;;;;;;;13.95;9.07;;;21.30;99.90;;;;;;5014478;28;20533;-77
2022/06/30 05:10:56;;;;;;;13.45;8.48;;;21.30;99.90;;;;;;5014703;28;20184;-76
2022/06/30 05:13:21;;;;;;;16.17;9.48;;;21.30;99.90;;;;;;5015635;28;20192;-75
2022/06/30 05:15:47;;;;;;;16.23;9.15;;;21.20;99.90;;;;;;5016603;28;20251;-78
2022/06/30 05:18:13;;;;;;;14.43;9.30;;;21.50;99.90;;;;;;5010491;28;20249;-75
2022/06/30 05:20:39;;;;;;;14.90;8.88;;;21.50;99.90;;;;;;5015846;28;20256;-74
2022/06/30 05:23:05;;;;;;;14.43;9.27;;;21.60;99.90;;;;;;5017986;28;20602;-74
2022/06/30 05:28:15;;;;;;;17.67;9.10;;;21.30;99.90;;;;;;5022284;28;20188;-75
2022/06/30 05:30:41;;;;;;;14.88;9.73;;;21.30;99.90;;;;;;5022268;28;20181;-76
2022/06/30 05:33:07;;;;;;;14.25;9.65;;;21.20;99.90;;;;;;5018566;28;20181;-76
2022/06/30 05:35:33;;;;;;;15.73;9.13;;;21.40;99.90;;;;;;5018000;28;20286;-76
2022/06/30 05:37:59;;;;;;;12.93;8.85;;;21.20;99.90;;;;;;5017782;28;20177;-75
2022/06/30 05:40:24;;;;;;;13.52;9.45;;;21.10;99.90;;;;;;5016199;28;20687;-74
2022/06/30 05:42:50;;;;;;;17.67;10.85;;;21.10;99.90;;;;;;5014638;28;20228;-75
2022/06/30 05:45:15;;;;;;;19.13;9.82;;;21.00;99.90;;;;;;5014722;28;20629;-73
2022/06/30 05:47:51;;;;;;;14.50;9.40;;;21.10;99.90;;;;;;5014743;28;20563;-75
2022/06/30 05:50:17;;;;;;;24.70;12.05;;;21.20;99.90;;;;;;5014440;28;20223;-74
2022/06/30 05:52:44;;;;;;;29.63;13.18;;;21.20;99.90;;;;;;5014406;28;20200;-76
2022/06/30 05:55:10;;;;;;;26.27;13.18;;;21.20;99.90;;;;;;5016371;28;20192;-72
2022/06/30 05:58:01;;;;;;;26.58;13.18;;;21.20;99.90;;;;;;5018269;28;20224;-74
2022/06/30 06:00:28;;;;;;;23.00;12.65;;;21.40;99.90;;;;;;5021005;28;20228;-74
2022/06/30 06:02:54;;;;;;;22.67;12.70;;;21.40;99.90;;;;;;5027162;28;20244;-75
2022/06/30 06:05:19;;;;;;;20.50;12.60;;;21.40;99.90;;;;;;5044132;28;20220;-73
2022/06/30 06:07:45;;;;;;;19.88;12.07;;;21.50;99.90;;;;;;5043468;28;20195;-73
2022/06/30 06:10:13;;;;;;;20.77;12.27;;;21.60;99.90;;;;;;5037696;28;20238;-73
2022/06/30 06:12:39;;;;;;;22.13;12.52;;;21.70;99.90;;;;;;5034080;28;20184;-74
2022/06/30 06:15:05;;;;;;;20.80;12.18;;;21.60;99.90;;;;;;5033792;28;20205;-74
2022/06/30 06:17:31;;;;;;;17.63;12.05;;;21.60;99.90;;;;;;5034030;28;20173;-74
2022/06/30 06:19:57;;;;;;;21.63;12.90;;;21.70;99.90;;;;;;5033910;28;20204;-74
2022/06/30 06:22:23;;;;;;;20.02;11.68;;;21.80;99.90;;;;;;5033188;28;20205;-73
2022/06/30 06:24:48;;;;;;;30.65;13.85;;;21.90;99.90;;;;;;5033087;28;20177;-73
2022/06/30 06:27:14;;;;;;;21.42;13.15;;;21.90;99.90;;;;;;5033215;28;20216;-73
2022/06/30 06:29:39;;;;;;;23.95;12.50;;;21.90;99.90;;;;;;5032264;28;20173;-74
2022/06/30 06:32:05;;;;;;;24.05;13.18;;;21.90;99.90;;;;;;5033602;28;20243;-74
2022/06/30 06:34:31;;;;;;;23.45;12.43;;;22.10;99.90;;;;;;5033163;28;20254;-74
2022/06/30 06:36:56;;;;;;;17.90;11.52;;;22.20;99.90;;;;;;5033056;28;20188;-74
2022/06/30 06:39:22;;;;;;;30.23;14.35;;;22.40;99.90;;;;;;5032587;28;20187;-74
2022/06/30 06:41:47;;;;;;;23.90;12.43;;;22.40;99.90;;;;;;5033220;28;20181;-74
2022/06/30 06:44:13;;;;;;;17.65;12.10;;;22.40;99.90;;;;;;5032790;28;20542;-75
2022/06/30 06:46:38;;;;;;;27.33;13.32;;;22.50;99.90;;;;;;5033410;28;20303;-76
2022/06/30 06:49:09;;;;;;;23.98;13.73;;;22.50;99.90;;;;;;5032862;28;20177;-74
2022/06/30 06:51:35;;;;;;;23.58;12.65;;;22.50;99.90;;;;;;5033270;28;20184;-74
2022/06/30 06:54:01;;;;;;;26.15;13.90;;;22.50;99.90;;;;;;5039211;28;20256;-75
2022/06/30 06:56:27;;;;;;;25.70;13.00;;;22.60;99.90;;;;;;5033920;28;20597;-74
2022/06/30 06:58:52;;;;;;;34.22;14.98;;;22.70;99.90;;;;;;5033054;28;20305;-73
2022/06/30 07:01:18;;;;;;;26.60;13.98;;;22.70;99.90;;;;;;5033003;28;20643;-74
2022/06/30 07:03:43;;;;;;;25.52;13.73;;;22.80;99.90;;;;;;5033026;28;20232;-74
2022/06/30 07:06:09;;;;;;;29.65;14.25;;;22.80;99.90;;;;;;5016363;28;20229;-74
2022/06/30 07:08:35;;;;;;;28.33;14.27;;;22.70;99.90;;;;;;5012768;28;20260;-74
2022/06/30 07:11:03;;;;;;;28.98;14.00;;;22.70;99.90;;;;;;5013552;28;20534;-74
2022/06/30 07:13:28;;;;;;;23.30;13.63;;;22.60;99.90;;;;;;5013460;28;20574;-73
2022/06/30 07:15:54;;;;;;;25.92;13.55;;;22.80;99.90;;;;;;5027039;28;20231;-74
2022/06/30 07:18:20;;;;;;;20.38;13.88;;;22.70;99.90;;;;;;5036790;28;20177;-74
2022/06/30 07:20:46;;;;;;;30.13;14.45;;;22.60;99.90;;;;;;5039551;28;20184;-76
2022/06/30 07:23:12;;;;;;;35.95;19.60;;;22.60;99.90;;;;;;5063076;28;20310;-76
2022/06/30 07:25:38;;;;;;;26.13;14.85;;;22.50;99.90;;;;;;5069438;28;20176;-75
2022/06/30 07:28:04;;;;;;;25.55;14.48;;;22.60;99.90;;;;;;5065022;28;20711;-74
2022/06/30 07:30:30;;;;;;;27.48;14.63;;;22.50;99.90;;;;;;5056555;28;20509;-75
2022/06/30 07:32:55;;;;;;;25.20;15.75;;;22.50;99.90;;;;;;5053299;28;20195;-75
2022/06/30 07:35:21;;;;;;;26.33;14.73;;;22.40;99.90;;;;;;5052852;28;20184;-75
2022/06/30 07:37:46;;;;;;;26.33;13.98;;;22.50;99.90;;;;;;5053254;28;20522;-75
2022/06/30 07:40:13;;;;;;;23.00;13.50;;;22.50;99.90;;;;;;5052479;28;20211;-74
2022/06/30 07:42:39;;;;;;;28.27;14.63;;;22.50;99.90;;;;;;5055392;28;20191;-74
2022/06/30 07:45:06;;;;;;;22.48;13.82;;;22.50;99.90;;;;;;5056342;28;20180;-73
2022/06/30 07:47:31;;;;;;;30.88;14.85;;;22.60;99.90;;;;;;5056641;28;20215;-74
2022/06/30 07:49:57;;;;;;;26.85;15.68;;;22.80;99.90;;;;;;5051914;28;20188;-74
2022/06/30 07:52:22;;;;;;;29.48;13.85;;;22.80;99.90;;;;;;5056795;28;20188;-75
2022/06/30 07:54:50;;;;;;;22.35;13.43;;;23.00;99.90;;;;;;5056470;28;20187;-75
2022/06/30 07:57:17;;;;;;;24.48;15.32;;;23.20;99.90;;;;;;5056714;28;20176;-74
2022/06/30 07:59:42;;;;;;;23.60;15.15;;;23.40;99.90;;;;;;5056983;28;20186;-74
2022/06/30 08:02:07;;;;;;;23.33;14.63;;;23.50;99.90;;;;;;5056333;28;20172;-74
2022/06/30 08:04:33;;;;;;;22.20;14.30;;;23.70;99.90;;;;;;5057274;28;20251;-75
2022/06/30 08:07:01;;;;;;;23.38;15.60;;;23.90;99.90;;;;;;5040282;28;20308;-74
2022/06/30 08:09:27;;;;;;;19.92;13.65;;;24.20;99.90;;;;;;5015886;28;20173;-75
2022/06/30 08:11:54;;;;;;;21.42;14.10;;;24.40;99.90;;;;;;5016532;28;20204;-74
2022/06/30 08:14:20;;;;;;;22.85;15.20;;;24.60;99.90;;;;;;5016506;28;20191;-76
2022/06/30 08:16:46;;;;;;;23.17;14.77;;;24.40;99.90;;;;;;5016017;28;20185;-73
2022/06/30 08:19:11;;;;;;;24.75;15.35;;;24.30;99.90;;;;;;5016291;28;20193;-76
2022/06/30 08:21:37;;;;;;;25.15;15.50;;;24.40;99.90;;;;;;5015680;28;20188;-72
2022/06/30 08:24:03;;;;;;;23.73;14.40;;;24.50;99.90;;;;;;5016245;28;20185;-74
2022/06/30 08:26:28;;;;;;;28.23;15.82;;;24.20;99.90;;;;;;5016748;28;20232;-74
2022/06/30 08:28:54;;;;;;;28.77;15.32;;;24.00;99.90;;;;;;5016089;28;20169;-73
2022/06/30 08:31:20;;;;;;;25.05;15.00;;;24.10;99.90;;;;;;5016437;28;20209;-74
2022/06/30 08:33:47;;;;;;;25.45;16.08;;;24.20;99.90;;;;;;5032439;28;20203;-74
2022/06/30 08:36:12;;;;;;;25.13;14.23;;;24.20;99.90;;;;;;5030120;28;20311;-75
2022/06/30 08:38:38;;;;;;;56.92;37.85;;;24.40;99.90;;;;;;5033745;28;20219;-75
2022/06/30 08:43:48;;;;;;;20.75;14.07;;;24.70;99.90;;;;;;5038016;28;20222;-78
2022/06/30 08:46:15;;;;;;;20.33;13.23;;;24.90;99.90;;;;;;5037113;28;20554;-78
2022/06/30 08:48:41;;;;;;;20.75;14.10;;;25.10;99.90;;;;;;5010182;28;20189;-76
2022/06/30 08:51:07;;;;;;;24.33;13.88;;;25.30;99.90;;;;;;5020679;28;20192;-77
2022/06/30 08:53:44;;;;;;;24.23;14.63;;;25.30;99.90;;;;;;5031897;28;20221;-77
2022/06/30 08:56:12;;;;;;;29.25;15.50;;;25.40;99.90;;;;;;5035885;28;20180;-77
2022/06/30 08:58:39;;;;;;;22.70;14.82;;;25.40;99.90;;;;;;5037178;28;20185;-77
2022/06/30 09:01:05;;;;;;;26.58;14.98;;;25.50;99.90;;;;;;5037211;28;20176;-75
2022/06/30 09:03:32;;;;;;;23.00;13.98;;;25.60;99.90;;;;;;5038415;28;20221;-77
2022/06/30 09:05:58;;;;;;;21.90;13.88;;;25.80;99.90;;;;;;5036263;28;20224;-74
2022/06/30 09:08:23;;;;;;;20.98;12.73;;;25.90;99.90;;;;;;5036176;28;20185;-77
2022/06/30 09:10:55;;;;;;;22.13;14.10;;;25.90;99.90;;;;;;5039674;28;20187;-75
2022/06/30 09:13:23;;;;;;;18.10;13.02;;;26.00;99.90;;;;;;5046333;28;20636;-78
2022/06/30 09:15:49;;;;;;;23.83;13.90;;;26.00;99.90;;;;;;5045282;28;20188;-76
2022/06/30 09:18:28;;;;;;;22.92;14.27;;;25.70;99.90;;;;;;5044501;28;20168;-74
2022/06/30 09:20:54;;;;;;;22.20;13.93;;;26.10;99.90;;;;;;5038419;28;20705;-78
2022/06/30 09:23:20;;;;;;;22.17;13.27;;;26.30;99.90;;;;;;5029398;28;20622;-79
2022/06/30 09:25:48;;;;;;;21.73;13.65;;;26.30;99.90;;;;;;5034542;28;20243;-79
2022/06/30 09:28:14;;;;;;;16.83;11.95;;;26.20;99.90;;;;;;5033175;28;20176;-77
2022/06/30 09:30:40;;;;;;;22.25;14.02;;;26.20;99.90;;;;;;5034408;28;20184;-77
2022/06/30 09:33:09;;;;;;;20.58;13.25;;;25.60;99.90;;;;;;5020127;28;20243;-75
2022/06/30 09:35:37;;;;;;;21.00;13.48;;;25.80;99.90;;;;;;5012384;28;20543;-75
2022/06/30 09:38:05;;;;;;;19.27;13.15;;;25.80;99.90;;;;;;5014815;28;20260;-77
2022/06/30 09:41:00;;;;;;;18.10;12.88;;;25.90;99.90;;;;;;5014858;28;20184;-76
2022/06/30 09:43:36;;;;;;;19.02;12.77;;;26.10;99.90;;;;;;5014482;28;20186;-76
2022/06/30 09:46:03;;;;;;;22.33;12.63;;;26.30;99.90;;;;;;5014783;28;20703;-75
2022/06/30 09:48:31;;;;;;;21.00;13.82;;;26.40;99.90;;;;;;5018976;28;20195;-76
2022/06/30 09:51:01;;;;;;;17.15;12.02;;;26.20;99.90;;;;;;5029504;28;20173;-76
2022/06/30 09:53:27;;;;;;;16.05;12.05;;;26.00;99.90;;;;;;5030732;28;20170;-77
2022/06/30 09:55:53;;;;;;;17.33;12.00;;;25.70;99.90;;;;;;5026133;28;20178;-76
2022/06/30 09:58:30;;;;;;;17.85;12.48;;;25.70;99.90;;;;;;5031195;28;20196;-75
2022/06/30 10:00:58;;;;;;;17.58;12.23;;;25.70;99.90;;;;;;5029747;28;20236;-75
2022/06/30 10:03:24;;;;;;;17.60;11.35;;;25.50;99.90;;;;;;5020127;28;20676;-77
2022/06/30 10:06:06;;;;;;;15.93;11.57;;;25.60;99.90;;;;;;5043772;28;20223;-77
2022/06/30 10:08:32;;;;;;;15.85;11.77;;;25.60;99.90;;;;;;5050341;28;20193;-77
2022/06/30 10:10:58;;;;;;;18.80;11.45;;;25.50;99.90;;;;;;5034749;28;20221;-77
2022/06/30 10:13:24;;;;;;;19.10;11.70;;;25.50;99.90;;;;;;5042317;28;20204;-75
2022/06/30 10:15:56;;;;;;;17.90;11.93;;;25.50;99.90;;;;;;5038092;28;20184;-75
2022/06/30 10:18:25;;;;;;;18.58;11.98;;;25.60;99.90;;;;;;5033254;28;20208;-78
2022/06/30 10:20:51;;;;;;;17.25;12.50;;;26.00;99.90;;;;;;5033331;28;20191;-77
2022/06/30 10:23:21;;;;;;;16.58;11.23;;;26.50;99.90;;;;;;5017330;28;20289;-77
2022/06/30 10:25:51;;;;;;;16.92;12.15;;;26.90;99.90;;;;;;5013680;28;20268;-80
2022/06/30 10:28:19;;;;;;;16.92;11.65;;;27.00;99.90;;;;;;5013541;28;20186;-82
2022/06/30 10:30:53;;;;;;;16.23;11.02;;;26.90;99.90;;;;;;5014281;28;20174;-78
2022/06/30 10:33:42;;;;;;;19.08;11.68;;;27.00;99.90;;;;;;5013819;28;20191;-79
2022/06/30 10:36:14;;;;;;;15.85;12.00;;;27.20;99.90;;;;;;5014980;28;20196;-80
2022/06/30 10:38:53;;;;;;;14.30;11.63;;;27.20;99.90;;;;;;5013334;28;20181;-77
2022/06/30 10:41:23;;;;;;;14.38;10.18;;;27.30;99.90;;;;;;5013989;28;20185;-80
2022/06/30 10:44:04;;;;;;;14.40;10.45;;;27.80;99.90;;;;;;5013716;28;20185;-80
2022/06/30 10:46:45;;;;;;;13.68;9.70;;;28.20;99.90;;;;;;5013165;28;20559;-80
2022/06/30 10:49:12;;;;;;;17.30;10.82;;;28.10;99.90;;;;;;5013221;28;20580;-74
2022/06/30 10:51:39;;;;;;;14.38;11.02;;;28.10;99.90;;;;;;5013100;28;20185;-75
2022/06/30 10:54:05;;;;;;;18.30;11.30;;;28.60;99.90;;;;;;5013153;28;20195;-75
2022/06/30 10:56:54;;;;;;;14.07;10.10;;;28.40;99.90;;;;;;5013232;28;20251;-78
2022/06/30 10:59:43;;;;;;;11.93;10.10;;;27.70;99.90;;;;;;5013986;28;20181;-76
2022/06/30 11:02:14;;;;;;;12.77;10.63;;;27.50;99.90;;;;;;5013418;28;20601;-75
2022/06/30 11:04:44;;;;;;;13.10;10.07;;;27.20;99.90;;;;;;5017193;28;20241;-79
2022/06/30 11:07:24;;;;;;;12.82;9.52;;;27.80;99.90;;;;;;5026351;28;20225;-76
2022/06/30 11:09:57;;;;;;;14.05;10.55;;;28.30;99.90;;;;;;5024630;28;20216;-76
2022/06/30 11:12:32;;;;;;;14.95;10.18;;;28.40;99.90;;;;;;5024148;28;20227;-77
2022/06/30 11:14:59;;;;;;;11.77;9.38;;;28.50;99.90;;;;;;5013622;28;20200;-77
2022/06/30 11:17:26;;;;;;;11.57;9.48;;;28.50;99.90;;;;;;5020427;28;20231;-78
2022/06/30 11:20:06;;;;;;;13.02;8.95;;;28.60;99.90;;;;;;5018564;28;20197;-77
2022/06/30 11:22:33;;;;;;;13.20;10.30;;;28.60;99.90;;;;;;5017822;28;20173;-76
2022/06/30 11:25:03;;;;;;;13.45;10.80;;;28.50;99.90;;;;;;5017723;28;20173;-78
2022/06/30 11:27:32;;;;;;;12.63;9.40;;;28.50;99.90;;;;;;5017442;28;20225;-77
2022/06/30 11:30:06;;;;;;;12.35;9.65;;;28.90;99.90;;;;;;5016799;28;20209;-78
2022/06/30 11:32:32;;;;;;;13.90;10.18;;;29.50;99.90;;;;;;5017451;28;20264;-80
2022/06/30 11:34:58;;;;;;;11.38;9.32;;;28.80;99.90;;;;;;5016861;28;20177;-77
2022/06/30 11:37:25;;;;;;;13.55;9.80;;;28.90;99.90;;;;;;5016329;28;20650;-75
2022/06/30 11:39:58;;;;;;;14.95;9.05;;;28.80;99.90;;;;;;5016412;28;20181;-76
2022/06/30 11:42:24;;;;;;;14.27;9.88;;;29.50;99.90;;;;;;5016405;28;20657;-76
2022/06/30 11:44:50;;;;;;;16.17;9.15;;;29.70;99.90;;;;;;5016761;28;20184;-75
2022/06/30 11:47:16;;;;;;;10.15;8.43;;;29.90;99.90;;;;;;5016446;28;20252;-78
2022/06/30 11:49:53;;;;;;;14.98;9.18;;;29.90;99.90;;;;;;5017011;28;20624;-75
2022/06/30 11:52:24;;;;;;;12.35;8.38;;;30.10;99.90;;;;;;5022830;28;20180;-75
2022/06/30 11:54:56;;;;;;;11.40;7.63;;;29.80;99.90;;;;;;5024308;28;20190;-76
2022/06/30 11:57:24;;;;;;;13.65;7.75;;;29.30;99.90;;;;;;5016619;28;20240;-75
2022/06/30 11:59:53;;;;;;;11.52;8.15;;;29.60;99.90;;;;;;5017022;28;20271;-80
2022/06/30 12:02:19;;;;;;;10.27;8.23;;;29.40;99.90;;;;;;5016506;28;20185;-79
2022/06/30 12:04:44;;;;;;;11.13;8.10;;;29.40;99.90;;;;;;5016649;28;20228;-79
2022/06/30 12:07:13;;;;;;;14.05;7.07;;;29.10;99.90;;;;;;5012199;28;20221;-77
2022/06/30 12:09:43;;;;;;;12.50;8.68;;;28.50;99.90;;;;;;5015814;28;20177;-79
2022/06/30 12:12:08;;;;;;;10.88;8.02;;;28.20;99.90;;;;;;5015871;28;20185;-76
2022/06/30 12:14:39;;;;;;;9.35;8.30;;;28.20;99.90;;;;;;5015955;28;20535;-76
2022/06/30 12:17:10;;;;;;;13.70;9.25;;;28.20;99.90;;;;;;5015704;28;20185;-76
2022/06/30 12:19:36;;;;;;;15.82;11.27;;;28.30;99.90;;;;;;5015154;28;20201;-77
2022/06/30 12:22:04;;;;;;;12.82;9.60;;;28.50;99.90;;;;;;5015307;28;20264;-79
2022/06/30 12:24:30;;;;;;;18.13;14.23;;;28.40;99.90;;;;;;5015712;28;20177;-73
2022/06/30 12:26:58;;;;;;;12.05;8.40;;;29.00;99.90;;;;;;5014834;28;20217;-78
2022/06/30 12:29:26;;;;;;;10.43;9.30;;;29.10;99.90;;;;;;5015499;28;20189;-76
2022/06/30 12:32:08;;;;;;;12.15;9.40;;;29.20;99.90;;;;;;5014966;28;20307;-78
2022/06/30 12:34:54;;;;;;;11.73;9.77;;;28.80;99.90;;;;;;5015249;28;20212;-75
2022/06/30 12:37:34;;;;;;;13.25;10.77;;;28.50;99.90;;;;;;5015435;28;20177;-74
2022/06/30 12:40:21;;;;;;;18.38;10.93;;;28.40;99.90;;;;;;5015629;28;20303;-77
2022/06/30 12:42:52;;;;;;;14.45;11.60;;;28.00;99.90;;;;;;5015501;28;20196;-76
2022/06/30 12:45:43;;;;;;;15.15;11.38;;;27.70;99.90;;;;;;5015571;28;20307;-77
2022/06/30 12:48:10;;;;;;;14.60;11.15;;;27.70;99.90;;;;;;5014815;28;20190;-79